Time;durP1;ratioP1;P1;durP2;ratioP2;P2;SDS_P1;SDS_P2;PMS_P1;PMS_P2;Temp;Humidity;BMP_temperature;BMP_pressure;BME280_temperature;BME280_humidity;BME280_pressure;Samples;Min_cycle;Max_cycle;Signal;HPM_P1;HPM_P2
2022/08/17 00:01:26;;;;;;;;;;;;;;;29.12;76.23;98386.72;5092660;27;19920;-85
2022/08/17 00:03:51;;;;;;;;;;;;;;;29.15;75.44;98381.06;5089983;27;20007;-86
2022/08/17 00:06:19;;;;;;;;;;;;;;;28.58;80.07;98389.56;5074397;27;19958;-86
2022/08/17 00:08:46;;;;;;;;;;;;;;;28.50;81.01;98393.09;5088641;27;19922;-85
2022/08/17 00:11:15;;;;;;;;;;;;;;;28.28;80.61;98384.16;5089985;27;20415;-85
2022/08/17 00:13:43;;;;;;;;;;;;;;;28.08;81.94;98378.50;5088438;27;19919;-86
2022/08/17 00:16:13;;;;;;;;;;;;;;;28.14;82.76;98376.97;5089504;27;19973;-86
2022/08/17 00:18:39;;;;;;;;;;;;;;;27.95;81.79;98373.78;5088811;27;19919;-86
2022/08/17 00:21:05;;;;;;;;;;;;;;;28.20;81.52;98373.63;5089570;28;19968;-85
2022/08/17 00:23:30;;;;;;;;;;;;;;;28.27;80.60;98366.59;5090304;27;20430;-86
2022/08/17 00:25:55;;;;;;;;;;;;;;;28.26;79.58;98372.06;5088975;28;19919;-85
2022/08/17 00:28:20;;;;;;;;;;;;;;;28.10;79.50;98370.38;5089983;27;20095;-85
2022/08/17 00:30:47;;;;;;;;;;;;;;;28.03;79.36;98369.44;5074947;27;19916;-85
2022/08/17 00:33:14;;;;;;;;;;;;;;;28.11;79.18;98372.03;5085287;27;19942;-85
2022/08/17 00:35:39;;;;;;;;;;;;;;;28.22;78.47;98363.69;5071855;28;19963;-85
2022/08/17 00:38:08;;;;;;;;;;;;;;;28.45;77.64;98357.53;5074573;28;19955;-85
2022/08/17 00:40:34;;;;;;;;;;;;;;;28.81;77.14;98363.00;5076223;28;20380;-85
2022/08/17 00:43:06;;;;;;;;;;;;;;;28.75;74.67;98366.38;5076501;28;19923;-86
2022/08/17 00:45:31;;;;;;;;;;;;;;;28.87;75.69;98356.97;5091135;28;19915;-86
2022/08/17 00:47:57;;;;;;;;;;;;;;;28.72;74.86;98367.56;5089154;28;19964;-86
2022/08/17 00:50:22;;;;;;;;;;;;;;;28.20;77.21;98370.16;5080602;28;19912;-86
2022/08/17 00:52:51;;;;;;;;;;;;;;;27.95;79.53;98372.97;5076730;28;20394;-86
2022/08/17 00:55:17;;;;;;;;;;;;;;;28.23;79.72;98375.09;5070481;28;20006;-86
2022/08/17 00:57:44;;;;;;;;;;;;;;;27.49;83.21;98371.03;5090504;28;20014;-86
2022/08/17 01:00:11;;;;;;;;;;;;;;;26.90;84.90;98374.03;5077821;28;19969;-86
2022/08/17 01:02:38;;;;;;;;;;;;;;;26.76;86.29;98371.25;5089170;28;20477;-86
2022/08/17 01:05:04;;;;;;;;;;;;;;;26.68;88.25;98370.25;5077142;28;19947;-86
2022/08/17 01:07:29;;;;;;;;;;;;;;;27.11;86.01;98367.38;5090671;28;19946;-86
2022/08/17 01:09:55;;;;;;;;;;;;;;;26.82;87.69;98365.28;5073776;28;19926;-86
2022/08/17 01:12:20;;;;;;;;;;;;;;;26.74;88.94;98363.50;5075328;28;19919;-86
2022/08/17 01:14:45;;;;;;;;;;;;;;;27.18;86.44;98349.00;5092840;28;19915;-85
2022/08/17 01:17:10;;;;;;;;;;;;;;;26.79;86.49;98345.31;5090944;28;19915;-85
2022/08/17 01:19:38;;;;;;;;;;;;;;;26.80;86.37;98346.13;5107816;28;20595;-86
2022/08/17 01:22:15;;;;;;;;;;;;;;;26.87;86.30;98353.25;5094080;28;20061;-86
2022/08/17 01:24:42;;;;;;;;;;;;;;;26.04;88.11;98353.41;5106295;28;19969;-86
2022/08/17 01:27:08;;;;;;;;;;;;;;;26.77;87.08;98354.41;5074530;28;19922;-85
2022/08/17 01:29:34;;;;;;;;;;;;;;;26.91;84.75;98340.50;5091911;28;19916;-85
2022/08/17 01:32:01;;;;;;;;;;;;;;;27.26;83.40;98341.91;5093351;28;20256;-85
2022/08/17 01:34:26;;;;;;;;;;;;;;;27.24;83.24;98338.59;5088864;28;20824;-86
2022/08/17 01:36:51;;;;;;;;;;;;;;;27.02;84.57;98348.06;5090483;28;19916;-86
2022/08/17 01:39:22;;;;;;;;;;;;;;;26.68;86.56;98346.47;5086066;28;19915;-86
2022/08/17 01:41:47;;;;;;;;;;;;;;;27.11;84.30;98341.75;5083772;28;20212;-86
2022/08/17 01:44:13;;;;;;;;;;;;;;;26.90;84.57;98352.88;5065817;28;19967;-86
2022/08/17 01:46:38;;;;;;;;;;;;;;;27.45;83.44;98348.56;5066750;28;20268;-86
2022/08/17 01:49:07;;;;;;;;;;;;;;;27.26;83.93;98344.53;5069252;27;19920;-86
2022/08/17 01:51:33;;;;;;;;;;;;;;;26.60;86.97;98351.81;5087191;27;19972;-86
2022/08/17 01:54:00;;;;;;;;;;;;;;;27.17;84.86;98342.91;5085587;27;19923;-86
2022/08/17 01:56:25;;;;;;;;;;;;;;;27.38;84.51;98344.16;5069633;27;20342;-86
2022/08/17 01:58:51;;;;;;;;;;;;;;;27.22;83.66;98353.00;5069741;27;19927;-86
2022/08/17 02:01:20;;;;;;;;;;;;;;;26.92;84.16;98350.91;5069043;27;20527;-86
2022/08/17 02:03:45;;;;;;;;;;;;;;;27.05;84.44;98360.09;5071779;27;20218;-86
2022/08/17 02:06:10;;;;;;;;;;;;;;;27.33;83.45;98352.63;5070000;27;20015;-86
2022/08/17 02:08:36;;;;;;;;;;;;;;;27.26;83.29;98356.94;5087367;27;19920;-86
2022/08/17 02:11:02;;;;;;;;;;;;;;;27.50;82.46;98358.63;5116965;27;20399;-86
2022/08/17 02:13:28;;;;;;;;;;;;;;;27.54;81.02;98355.47;5084698;27;19948;-86
2022/08/17 02:15:55;;;;;;;;;;;;;;;27.29;81.87;98356.59;5086904;27;20154;-85
2022/08/17 02:18:20;;;;;;;;;;;;;;;27.60;81.21;98355.78;5087396;27;19922;-86
2022/08/17 02:20:46;;;;;;;;;;;;;;;26.54;86.25;98356.88;5071580;27;19919;-86
2022/08/17 02:23:11;;;;;;;;;;;;;;;26.93;85.41;98351.72;5083596;27;19969;-87
2022/08/17 02:25:36;;;;;;;;;;;;;;;27.29;83.18;98346.00;5066314;27;19919;-86
2022/08/17 02:28:02;;;;;;;;;;;;;;;26.27;88.88;98357.09;5068661;27;20245;-87
2022/08/17 02:30:28;;;;;;;;;;;;;;;26.50;87.04;98351.94;5067935;27;19963;-86
2022/08/17 02:32:53;;;;;;;;;;;;;;;26.39;87.03;98348.81;5085348;27;20396;-86
2022/08/17 02:35:20;;;;;;;;;;;;;;;26.82;85.14;98355.56;5067200;27;19954;-86
2022/08/17 02:37:45;;;;;;;;;;;;;;;27.69;79.74;98344.19;5068080;27;19923;-86
2022/08/17 02:40:11;;;;;;;;;;;;;;;27.69;79.26;98347.63;5083710;27;19920;-86
2022/08/17 02:42:37;;;;;;;;;;;;;;;27.73;80.48;98343.66;5070782;27;19915;-86
2022/08/17 02:45:04;;;;;;;;;;;;;;;27.76;79.73;98350.41;5088170;27;20411;-86
2022/08/17 02:47:30;;;;;;;;;;;;;;;27.80;78.88;98346.38;5077736;27;19919;-87
2022/08/17 02:49:55;;;;;;;;;;;;;;;27.53;80.21;98337.97;5085552;27;19950;-86
2022/08/17 02:52:20;;;;;;;;;;;;;;;27.20;81.15;98339.09;5085696;27;19916;-87
2022/08/17 02:54:46;;;;;;;;;;;;;;;27.23;81.34;98346.69;5067018;27;20384;-87
2022/08/17 02:57:11;;;;;;;;;;;;;;;26.77;84.50;98346.47;5084457;27;19996;-87
2022/08/17 02:59:37;;;;;;;;;;;;;;;26.86;84.13;98348.09;5068120;27;19919;-87
2022/08/17 03:02:03;;;;;;;;;;;;;;;27.27;82.69;98335.59;5067147;27;20475;-87
2022/08/17 03:04:28;;;;;;;;;;;;;;;27.27;81.53;98337.44;5064235;27;19923;-87
2022/08/17 03:06:53;;;;;;;;;;;;;;;27.39;80.63;98336.03;5067320;27;19931;-87
2022/08/17 03:09:18;;;;;;;;;;;;;;;27.66;79.61;98331.28;5070776;27;20003;-87
2022/08/17 03:11:44;;;;;;;;;;;;;;;26.79;82.23;98339.22;5085780;27;19963;-87
2022/08/17 03:14:09;;;;;;;;;;;;;;;27.25;81.99;98327.03;5066845;27;19919;-87
2022/08/17 03:16:34;;;;;;;;;;;;;;;27.46;81.89;98331.72;5066937;27;20174;-87
2022/08/17 03:18:59;;;;;;;;;;;;;;;27.41;80.55;98328.75;5071033;27;19920;-87
2022/08/17 03:21:25;;;;;;;;;;;;;;;27.04;82.89;98338.16;5075568;27;20406;-87
2022/08/17 03:23:50;;;;;;;;;;;;;;;25.77;85.27;98336.88;5066713;27;19919;-88
2022/08/17 03:26:15;;;;;;;;;;;;;;;26.37;86.00;98334.97;5082939;27;19927;-87
2022/08/17 03:28:40;;;;;;;;;;;;;;;26.39;84.76;98336.44;5073750;27;19925;-87
2022/08/17 03:31:06;;;;;;;;;;;;;;;27.24;82.68;98332.50;5085757;27;20381;-87
2022/08/17 03:33:31;;;;;;;;;;;;;;;26.47;82.52;98330.31;5070543;27;19939;-87
2022/08/17 03:35:57;;;;;;;;;;;;;;;25.76;86.84;98343.13;5085942;27;20296;-88
2022/08/17 03:38:22;;;;;;;;;;;;;;;26.02;86.99;98331.66;5068407;27;19925;-87
2022/08/17 03:40:48;;;;;;;;;;;;;;;25.86;88.23;98338.56;5069192;27;19923;-88
2022/08/17 03:43:13;;;;;;;;;;;;;;;25.40;89.30;98348.63;5078723;27;19950;-88
2022/08/17 03:57:00;;;;;;;;;;;;;;;25.71;88.97;98342.78;5051881;28;19932;-87
2022/08/17 03:59:25;;;;;;;;;;;;;;;25.79;88.06;98339.34;5057052;27;20091;-87
2022/08/17 04:01:51;;;;;;;;;;;;;;;25.83;88.11;98332.75;5069371;27;19919;-87
2022/08/17 04:04:16;;;;;;;;;;;;;;;26.56;84.33;98331.19;5083329;27;19930;-87
2022/08/17 04:06:41;;;;;;;;;;;;;;;27.09;82.00;98329.69;5063692;28;20006;-87
2022/08/17 04:09:07;;;;;;;;;;;;;;;27.25;79.37;98323.56;5073791;27;20333;-86
2022/08/17 04:11:33;;;;;;;;;;;;;;;27.11;79.81;98322.44;5104462;27;19923;-87
2022/08/17 04:13:58;;;;;;;;;;;;;;;27.03;80.39;98325.94;5089502;27;19919;-87
2022/08/17 04:16:24;;;;;;;;;;;;;;;26.60;80.69;98319.28;5067513;28;19920;-87
2022/08/17 04:18:49;;;;;;;;;;;;;;;26.88;80.96;98322.34;5079186;27;19999;-87
2022/08/17 04:21:15;;;;;;;;;;;;;;;26.68;81.38;98328.00;5067816;27;20395;-87
2022/08/17 04:23:40;;;;;;;;;;;;;;;26.26;82.64;98334.31;5088433;28;19988;-86
2022/08/17 04:26:05;;;;;;;;;;;;;;;26.21;81.34;98336.63;5070220;28;20683;-87
2022/08/17 04:28:30;;;;;;;;;;;;;;;26.10;82.14;98334.31;5073104;27;19947;-87
2022/08/17 04:30:56;;;;;;;;;;;;;;;25.87;84.09;98339.41;5090625;28;19920;-87
2022/08/17 04:33:23;;;;;;;;;;;;;;;25.39;85.21;98347.00;5070034;27;19916;-87
2022/08/17 04:35:49;;;;;;;;;;;;;;;25.82;85.73;98342.50;5088734;28;19924;-86
2022/08/17 04:38:24;;;;;;;;;;;;;;;25.85;84.05;98344.78;5072685;28;20907;-87
2022/08/17 04:43:33;;;;;;;;;;;;;;;25.82;83.89;98349.59;5093177;28;19923;-86
2022/08/17 04:46:00;;;;;;;;;;;;;;;26.08;83.31;98350.28;5070764;28;19919;-87
2022/08/17 04:48:26;;;;;;;;;;;;;;;25.52;83.93;98356.25;5088282;28;19916;-87
2022/08/17 04:50:51;;;;;;;;;;;;;;;25.77;84.63;98347.44;5074046;28;19919;-86
2022/08/17 04:53:17;;;;;;;;;;;;;;;25.65;84.30;98351.34;5090799;28;19926;-86
2022/08/17 04:55:42;;;;;;;;;;;;;;;25.97;83.66;98355.06;5087942;28;19959;-87
2022/08/17 04:58:08;;;;;;;;;;;;;;;26.83;80.97;98351.09;5094008;28;19927;-86
2022/08/17 05:00:33;;;;;;;;;;;;;;;26.86;79.99;98359.50;5090205;28;19922;-87
2022/08/17 05:02:58;;;;;;;;;;;;;;;26.85;79.98;98357.03;5081724;28;19927;-86
2022/08/17 05:05:26;;;;;;;;;;;;;;;26.09;82.59;98364.31;5075334;28;19915;-87
2022/08/17 05:07:55;;;;;;;;;;;;;;;26.19;81.43;98364.97;5089927;28;19926;-85
2022/08/17 05:10:21;;;;;;;;;;;;;;;26.50;81.01;98369.59;5077037;28;19938;-88
2022/08/17 05:12:47;;;;;;;;;;;;;;;26.64;80.02;98362.84;5073743;28;19916;-87
2022/08/17 05:15:15;;;;;;;;;;;;;;;26.69;78.29;98366.63;5077629;28;19979;-88
2022/08/17 05:17:44;;;;;;;;;;;;;;;26.35;81.39;98373.91;5093888;28;19924;-88
2022/08/17 05:20:09;;;;;;;;;;;;;;;26.14;81.70;98372.56;5081580;28;19915;-87
2022/08/17 05:22:35;;;;;;;;;;;;;;;26.83;80.50;98373.06;5095290;27;19965;-85
2022/08/17 05:25:00;;;;;;;;;;;;;;;27.08;78.37;98371.16;5076759;28;20012;-86
2022/08/17 05:27:26;;;;;;;;;;;;;;;26.15;81.39;98376.84;5096748;27;20352;-87
2022/08/17 05:29:51;;;;;;;;;;;;;;;26.36;80.71;98375.53;5095031;27;19998;-87
2022/08/17 05:32:21;;;;;;;;;;;;;;;26.80;80.00;98367.28;5092755;27;19919;-87
2022/08/17 05:34:46;;;;;;;;;;;;;;;26.38;81.94;98381.47;5078811;27;19919;-87
2022/08/17 05:37:11;;;;;;;;;;;;;;;26.29;83.80;98378.84;5110378;27;20912;-85
2022/08/17 05:39:36;;;;;;;;;;;;;;;26.50;82.68;98372.22;5080413;27;19920;-85
2022/08/17 05:42:02;;;;;;;;;;;;;;;26.81;80.97;98374.22;5079584;27;20003;-85
2022/08/17 05:44:27;;;;;;;;;;;;;;;26.89;78.89;98374.19;5094399;28;19926;-85
2022/08/17 05:46:53;;;;;;;;;;;;;;;26.47;82.03;98372.56;5091598;27;20463;-86
2022/08/17 05:49:22;;;;;;;;;;;;;;;26.97;79.42;98368.88;5091522;27;19924;-86
2022/08/17 05:52:09;;;;;;;;;;;;;;;27.00;79.21;98371.19;5095297;27;19916;-85
2022/08/17 05:54:46;;;;;;;;;;;;;;;27.10;79.20;98369.19;5096496;27;19915;-86
2022/08/17 05:57:11;;;;;;;;;;;;;;;27.39;78.21;98375.69;5110797;27;19919;-86
2022/08/17 05:59:49;;;;;;;;;;;;;;;27.43;77.01;98371.72;5094003;27;19911;-85
2022/08/17 06:02:20;;;;;;;;;;;;;;;27.59;74.61;98368.19;5112781;27;19919;-86
2022/08/17 06:04:48;;;;;;;;;;;;;;;27.81;74.51;98371.06;5095305;27;20291;-85
2022/08/17 06:07:19;;;;;;;;;;;;;;;27.83;75.96;98364.59;5111609;27;19927;-86
2022/08/17 06:09:48;;;;;;;;;;;;;;;26.69;80.95;98358.72;5096729;27;19939;-86
2022/08/17 06:12:13;;;;;;;;;;;;;;;27.06;79.37;98361.78;5094907;27;19915;-86
2022/08/17 06:14:48;;;;;;;;;;;;;;;26.63;80.62;98362.00;5097106;27;19922;-86
2022/08/17 06:17:16;;;;;;;;;;;;;;;26.85;79.54;98359.69;5095896;28;19916;-85
2022/08/17 06:19:43;;;;;;;;;;;;;;;27.00;80.91;98357.97;5094045;27;19923;-87
2022/08/17 06:22:09;;;;;;;;;;;;;;;27.35;77.96;98360.34;5078977;27;19950;-86
2022/08/17 06:24:40;;;;;;;;;;;;;;;27.87;76.49;98360.63;5095467;27;20329;-86
2022/08/17 06:27:18;;;;;;;;;;;;;;;27.47;77.37;98362.47;5078228;27;19968;-87
2022/08/17 06:29:58;;;;;;;;;;;;;;;27.47;77.39;98370.38;5109265;27;19938;-86
2022/08/17 06:32:23;;;;;;;;;;;;;;;27.74;74.65;98360.34;5094052;27;19919;-86
2022/08/17 06:34:49;;;;;;;;;;;;;;;27.63;76.67;98364.19;5093353;27;19918;-85
2022/08/17 06:37:14;;;;;;;;;;;;;;;27.16;80.17;98369.50;5090963;27;20677;-86
2022/08/17 06:39:39;;;;;;;;;;;;;;;27.97;76.48;98357.75;5095555;27;19915;-87
2022/08/17 06:42:24;;;;;;;;;;;;;;;28.14;76.10;98358.44;5096348;27;19915;-88
2022/08/17 06:44:53;;;;;;;;;;;;;;;28.45;75.35;98358.34;5076254;27;19920;-88
2022/08/17 06:47:21;;;;;;;;;;;;;;;28.22;77.28;98360.22;5092834;27;20007;-88
2022/08/17 06:49:50;;;;;;;;;;;;;;;28.03;76.77;98372.09;5092325;28;20551;-89
2022/08/17 06:52:20;;;;;;;;;;;;;;;28.78;75.30;98364.22;5092632;28;19916;-88
2022/08/17 06:54:48;;;;;;;;;;;;;;;29.34;72.08;98357.63;5076027;27;19964;-88
2022/08/17 06:57:17;;;;;;;;;;;;;;;29.46;71.66;98356.13;5094920;27;20479;-87
2022/08/17 06:59:53;;;;;;;;;;;;;;;29.55;69.65;98359.50;5096106;27;20005;-87
2022/08/17 07:02:22;;;;;;;;;;;;;;;28.83;73.30;98361.00;5091077;27;20612;-87
2022/08/17 07:04:50;;;;;;;;;;;;;;;29.65;70.05;98356.56;5087527;27;19923;-89
2022/08/17 07:09:59;;;;;;;;;;;;;;;30.25;66.64;98363.31;5094862;27;19923;-86
2022/08/17 07:12:30;;;;;;;;;;;;;;;29.82;69.08;98368.63;5091193;27;20837;-87
2022/08/17 07:15:04;;;;;;;;;;;;;;;30.70;63.44;98361.25;5091652;27;19920;-88
2022/08/17 07:17:29;;;;;;;;;;;;;;;30.31;65.26;98354.63;5078512;27;19920;-87
2022/08/17 07:20:07;;;;;;;;;;;;;;;30.57;63.84;98354.00;5090987;27;19916;-87
2022/08/17 07:22:41;;;;;;;;;;;;;;;30.29;64.56;98356.66;5076319;27;19915;-86
2022/08/17 07:25:10;;;;;;;;;;;;;;;30.46;64.44;98351.88;5107771;27;19939;-86
2022/08/17 07:27:39;;;;;;;;;;;;;;;30.58;65.77;98352.16;5067694;28;19919;-85
2022/08/17 07:30:15;;;;;;;;;;;;;;;30.99;63.52;98351.44;5092157;27;19927;-88
2022/08/17 07:32:52;;;;;;;;;;;;;;;31.03;63.64;98355.34;5091495;27;20067;-87
2022/08/17 07:35:21;;;;;;;;;;;;;;;30.92;61.05;98355.91;5110658;27;19967;-87
2022/08/17 07:37:52;;;;;;;;;;;;;;;30.98;62.41;98355.13;5094903;27;19919;-87
2022/08/17 07:40:18;;;;;;;;;;;;;;;30.93;61.32;98363.69;5088400;27;19915;-87
2022/08/17 07:43:02;;;;;;;;;;;;;;;30.91;62.97;98357.75;5095896;27;19922;-87
2022/08/17 07:48:19;;;;;;;;;;;;;;;31.47;60.26;98362.13;5090111;27;19922;-88
2022/08/17 07:50:44;;;;;;;;;;;;;;;30.89;62.79;98366.94;5069494;28;19920;-88
2022/08/17 07:53:17;;;;;;;;;;;;;;;32.40;56.10;98365.00;5089046;27;20398;-88
2022/08/17 07:55:44;;;;;;;;;;;;;;;31.79;55.18;98360.56;5091072;27;20347;-87
2022/08/17 07:58:12;;;;;;;;;;;;;;;31.64;56.69;98367.94;5087610;27;20010;-87
2022/08/17 08:00:37;;;;;;;;;;;;;;;31.22;57.21;98367.91;5090570;27;20173;-88
2022/08/17 08:03:25;;;;;;;;;;;;;;;31.01;58.57;98365.34;5093261;27;19916;-87
2022/08/17 08:05:55;;;;;;;;;;;;;;;32.29;54.11;98368.25;5112731;27;19959;-88
2022/08/17 08:08:32;;;;;;;;;;;;;;;33.57;49.92;98370.50;5075166;27;19919;-88
2022/08/17 08:11:00;;;;;;;;;;;;;;;32.35;52.15;98371.97;5081426;28;19915;-87
2022/08/17 08:13:29;;;;;;;;;;;;;;;32.30;52.85;98370.72;5104981;27;20002;-88
2022/08/17 08:15:55;;;;;;;;;;;;;;;31.70;56.51;98374.28;5109973;27;20457;-88
2022/08/17 08:18:26;;;;;;;;;;;;;;;32.41;55.24;98376.47;5111552;27;20007;-87
2022/08/17 08:20:59;;;;;;;;;;;;;;;32.13;53.26;98381.97;5112827;27;19915;-88
2022/08/17 08:23:24;;;;;;;;;;;;;;;32.98;51.48;98379.50;5097832;27;19941;-88
2022/08/17 08:25:55;;;;;;;;;;;;;;;34.29;48.17;98368.47;5093922;27;20383;-88
2022/08/17 08:28:26;;;;;;;;;;;;;;;34.84;46.03;98378.50;5105312;27;20135;-88
2022/08/17 08:30:53;;;;;;;;;;;;;;;35.85;43.46;98387.03;5088007;28;19916;-88
2022/08/17 08:33:22;;;;;;;;;;;;;;;35.35;44.00;98377.38;5086563;27;19924;-88
2022/08/17 08:35:52;;;;;;;;;;;;;;;35.13;42.97;98385.03;5086768;28;19919;-88
2022/08/17 08:38:37;;;;;;;;;;;;;;;34.34;45.19;98383.84;5069464;28;19983;-88
2022/08/17 08:41:15;;;;;;;;;;;;;;;35.23;41.99;98379.16;5088471;27;19916;-88
2022/08/17 08:43:44;;;;;;;;;;;;;;;35.59;41.04;98372.13;5129816;27;19922;-88
2022/08/17 08:46:23;;;;;;;;;;;;;;;35.45;40.84;98370.66;5105237;27;20021;-87
2022/08/17 08:48:54;;;;;;;;;;;;;;;34.48;43.56;98372.00;5086403;28;19928;-88
2022/08/17 08:51:38;;;;;;;;;;;;;;;34.77;42.20;98367.88;5101596;28;20006;-88
2022/08/17 08:54:19;;;;;;;;;;;;;;;35.88;40.03;98372.34;5105768;28;19916;-88
2022/08/17 08:56:56;;;;;;;;;;;;;;;33.24;43.55;98376.81;5099192;28;19946;-88
2022/08/17 08:59:47;;;;;;;;;;;;;;;34.05;43.56;98374.56;5075683;27;20208;-88
2022/08/17 09:02:32;;;;;;;;;;;;;;;34.69;42.01;98370.84;5095639;27;19968;-88
2022/08/17 09:05:16;;;;;;;;;;;;;;;35.18;41.63;98371.78;5089517;27;20834;-88
2022/08/17 09:07:48;;;;;;;;;;;;;;;34.82;40.59;98364.53;5094144;27;19953;-88
2022/08/17 09:10:18;;;;;;;;;;;;;;;34.11;42.61;98365.75;5110477;27;19915;-88
2022/08/17 09:12:59;;;;;;;;;;;;;;;34.33;42.22;98361.66;5113042;27;19978;-88
2022/08/17 09:15:45;;;;;;;;;;;;;;;33.79;43.59;98362.22;5073305;27;20401;-88
2022/08/17 09:18:20;;;;;;;;;;;;;;;33.51;44.59;98366.84;5108652;27;19915;-88
2022/08/17 09:20:51;;;;;;;;;;;;;;;33.72;45.38;98356.91;5088730;27;20047;-88
2022/08/17 09:23:35;;;;;;;;;;;;;;;33.97;44.05;98362.31;5105593;27;19916;-87
2022/08/17 09:26:31;;;;;;;;;;;;;;;;;;;;;
2022/08/17 09:29:00;;;;;;;;;;;;;;;35.83;39.09;98351.59;5107064;27;20080;-88
2022/08/17 09:31:55;;;;;;;;;;;;;;;;;;;;;
2022/08/17 09:34:24;;;;;;;;;;;;;;;36.91;36.93;98351.53;5108293;27;20419;-88
2022/08/17 09:40:28;;;;;;;;;;;;;;;37.29;35.64;98348.31;5011538;28;19917;-85
2022/08/17 09:43:03;;;;;;;;;;;;;;;35.29;37.84;98351.50;5086158;27;19920;-88
2022/08/17 09:45:37;;;;;;;;;;;;;;;34.31;40.10;98349.56;5098888;27;19941;-89
2022/08/17 09:48:05;;;;;;;;;;;;;;;34.62;39.82;98350.53;5089684;27;20199;-89
2022/08/17 09:50:37;;;;;;;;;;;;;;;36.20;37.78;98346.97;5084812;27;19915;-89
2022/08/17 09:53:02;;;;;;;;;;;;;;;35.15;38.90;98350.03;5106700;27;20022;-89
2022/08/17 09:55:41;;;;;;;;;;;;;;;35.02;40.58;98347.47;5090086;27;19927;-88
2022/08/17 09:58:16;;;;;;;;;;;;;;;34.32;41.97;98349.31;5085123;27;20349;-87
2022/08/17 10:00:44;;;;;;;;;;;;;;;36.49;37.79;98343.59;5087242;27;20419;-86
2022/08/17 10:03:22;;;;;;;;;;;;;;;37.69;36.30;98347.50;5085389;27;20405;-86
2022/08/17 10:05:55;;;;;;;;;;;;;;;35.79;37.55;98350.44;5090780;27;19916;-86
2022/08/17 10:08:31;;;;;;;;;;;;;;;38.04;35.15;98339.25;5103531;27;20362;-86
2022/08/17 10:11:05;;;;;;;;;;;;;;;36.31;37.69;98342.66;5087102;27;19923;-86
2022/08/17 10:13:34;;;;;;;;;;;;;;;37.36;35.37;98338.28;5102257;27;20641;-87
2022/08/17 10:16:02;;;;;;;;;;;;;;;35.82;37.06;98344.63;5105341;27;19929;-86
2022/08/17 10:18:34;;;;;;;;;;;;;;;36.64;36.01;98342.09;5106040;27;20032;-87
2022/08/17 10:26:27;;;;;;;;;;;;;;;36.94;35.12;98340.34;5089768;27;20291;-87
2022/08/17 10:28:52;;;;;;;;;;;;;;;35.34;38.89;98348.13;5074053;27;19915;-87
2022/08/17 10:31:22;;;;;;;;;;;;;;;36.74;36.67;98340.69;5103426;27;19923;-86
2022/08/17 10:33:57;;;;;;;;;;;;;;;35.70;37.77;98341.09;5072047;27;20428;-86
2022/08/17 10:36:25;;;;;;;;;;;;;;;36.55;37.32;98346.16;5084187;27;20022;-86
2022/08/17 10:39:10;;;;;;;;;;;;;;;36.41;36.91;98352.81;5104250;27;19930;-87
2022/08/17 10:41:39;;;;;;;;;;;;;;;36.76;35.47;98346.66;5083864;27;20468;-86
2022/08/17 10:44:09;;;;;;;;;;;;;;;36.12;37.10;98347.28;5084954;27;19969;-86
2022/08/17 10:46:54;;;;;;;;;;;;;;;35.86;37.89;98345.00;5086437;27;19916;-86
2022/08/17 10:49:19;;;;;;;;;;;;;;;35.64;37.99;98344.69;5086099;27;20531;-86
2022/08/17 10:51:51;;;;;;;;;;;;;;;36.20;36.51;98346.16;5104696;27;19926;-86
2022/08/17 10:54:23;;;;;;;;;;;;;;;36.47;36.24;98349.19;5083579;27;19919;-86
2022/08/17 10:56:51;;;;;;;;;;;;;;;36.17;37.48;98358.13;5104973;27;20110;-86
2022/08/17 10:59:35;;;;;;;;;;;;;;;35.68;37.78;98352.03;5085488;27;19916;-86
2022/08/17 11:02:02;;;;;;;;;;;;;;;37.36;36.64;98354.38;5100626;27;19942;-86
2022/08/17 11:04:54;;;;;;;;;;;;;;;35.40;39.57;98366.78;5098913;27;20296;-86
2022/08/17 11:07:24;;;;;;;;;;;;;;;35.02;39.37;98369.69;5087541;27;19919;-86
2022/08/17 11:10:03;;;;;;;;;;;;;;;36.09;38.11;98369.16;5085320;27;20366;-86
2022/08/17 11:12:36;;;;;;;;;;;;;;;35.46;38.95;98365.06;5089738;27;19920;-86
2022/08/17 11:15:01;;;;;;;;;;;;;;;36.06;38.31;98372.31;5087445;27;19920;-86
2022/08/17 11:17:46;;;;;;;;;;;;;;;36.03;36.60;98372.75;5081772;28;19975;-86
2022/08/17 11:20:24;;;;;;;;;;;;;;;34.50;40.75;98374.47;5102977;27;19925;-86
2022/08/17 11:22:49;;;;;;;;;;;;;;;36.46;36.03;98365.53;5106275;27;19919;-88
2022/08/17 11:25:19;;;;;;;;;;;;;;;36.71;35.83;98370.69;5102242;27;19923;-87
2022/08/17 11:27:52;;;;;;;;;;;;;;;35.51;39.11;98367.06;5068661;27;20368;-87
2022/08/17 11:30:37;;;;;;;;;;;;;;;35.67;38.87;98376.38;5085305;27;20371;-86
2022/08/17 11:33:23;;;;;;;;;;;;;;;35.96;37.77;98382.78;5102988;27;19975;-86
2022/08/17 11:35:49;;;;;;;;;;;;;;;35.76;38.08;98385.72;5102062;27;19919;-86
2022/08/17 11:38:25;;;;;;;;;;;;;;;35.94;37.43;98380.31;5069896;27;20170;-86
2022/08/17 11:41:08;;;;;;;;;;;;;;;35.60;37.29;98379.09;5088952;27;19959;-86
2022/08/17 11:43:53;;;;;;;;;;;;;;;35.38;37.63;98387.63;5106840;27;19927;-86
2022/08/17 11:52:35;;;;;;;;;;;;;;;36.16;36.61;98398.59;5093057;27;19949;-85
2022/08/17 11:55:00;;;;;;;;;;;;;;;35.43;38.84;98396.84;5108968;27;19927;-85
2022/08/17 11:57:26;;;;;;;;;;;;;;;36.28;37.36;98402.09;5092755;27;19920;-84
2022/08/17 11:59:51;;;;;;;;;;;;;;;35.79;38.20;98394.13;5108444;27;19924;-84
2022/08/17 12:02:31;;;;;;;;;;;;;;;35.80;38.27;98403.78;5106342;27;19930;-84
2022/08/17 12:05:26;;;;;;;;;;;;;;;35.31;38.91;98402.94;5075147;27;19916;-85
2022/08/17 12:07:54;;;;;;;;;;;;;;;35.25;37.59;98403.84;5087835;27;20006;-85
2022/08/17 12:10:20;;;;;;;;;;;;;;;35.34;39.19;98397.13;5089269;27;19920;-85
2022/08/17 12:12:46;;;;;;;;;;;;;;;35.18;39.31;98401.22;5089612;27;19955;-85
2022/08/17 12:15:18;;;;;;;;;;;;;;;35.95;38.82;98397.22;5070797;27;19976;-85
2022/08/17 12:17:53;;;;;;;;;;;;;;;35.63;38.74;98392.09;5068069;27;19947;-85
2022/08/17 12:20:29;;;;;;;;;;;;;;;34.47;41.25;98397.13;5070717;27;19916;-85
2022/08/17 12:23:03;;;;;;;;;;;;;;;34.78;40.65;98392.75;5087394;27;19922;-85
2022/08/17 12:26:00;;;;;;;;;;;;;;;34.35;41.71;98389.00;5089818;27;20267;-85
2022/08/17 12:28:29;;;;;;;;;;;;;;;35.83;38.17;98388.31;5042086;27;20307;-85
2022/08/17 12:30:56;;;;;;;;;;;;;;;34.85;39.50;98385.50;5093218;28;19923;-85
2022/08/17 12:33:22;;;;;;;;;;;;;;;35.06;39.95;98388.81;5087754;27;19919;-85
2022/08/17 12:35:54;;;;;;;;;;;;;;;34.84;39.04;98393.75;5091826;27;20786;-84
2022/08/17 12:38:26;;;;;;;;;;;;;;;35.38;39.83;98390.31;5094546;28;20415;-85
2022/08/17 12:40:53;;;;;;;;;;;;;;;34.91;39.76;98387.28;5072436;28;19998;-85
2022/08/17 12:43:19;;;;;;;;;;;;;;;34.90;39.82;98385.66;5089434;27;19916;-85
2022/08/17 12:45:52;;;;;;;;;;;;;;;33.67;42.27;98386.13;5087041;27;20342;-85
2022/08/17 12:48:21;;;;;;;;;;;;;;;33.73;42.79;98386.09;5089903;28;19930;-85
2022/08/17 12:50:47;;;;;;;;;;;;;;;34.35;41.91;98380.97;5072018;28;20006;-84
2022/08/17 12:53:18;;;;;;;;;;;;;;;34.34;42.13;98381.19;5074139;28;19915;-85
2022/08/17 12:55:44;;;;;;;;;;;;;;;34.66;41.53;98390.00;5074333;28;20632;-84
2022/08/17 12:58:11;;;;;;;;;;;;;;;34.26;42.23;98386.78;5108054;28;19931;-85
2022/08/17 13:00:39;;;;;;;;;;;;;;;33.39;42.50;98383.72;5089851;28;19988;-85
2022/08/17 13:03:14;;;;;;;;;;;;;;;33.43;42.85;98380.44;5090169;28;19971;-84
2022/08/17 13:05:41;;;;;;;;;;;;;;;33.17;43.71;98376.00;5107593;28;20022;-84
2022/08/17 13:08:16;;;;;;;;;;;;;;;33.03;45.85;98390.41;5087104;28;19931;-84
2022/08/17 13:10:42;;;;;;;;;;;;;;;32.73;47.92;98390.84;5088571;28;19915;-84
2022/08/17 13:13:21;;;;;;;;;;;;;;;32.80;46.54;98380.16;5072349;28;19964;-85
2022/08/17 13:15:53;;;;;;;;;;;;;;;33.10;47.72;98375.22;5093007;28;19924;-85
2022/08/17 13:18:39;;;;;;;;;;;;;;;33.56;43.79;98368.88;5089579;28;20006;-84
2022/08/17 13:21:05;;;;;;;;;;;;;;;33.11;45.80;98374.19;5092537;28;20383;-86
2022/08/17 13:23:31;;;;;;;;;;;;;;;34.54;41.26;98371.16;5089205;28;20008;-86
2022/08/17 13:26:02;;;;;;;;;;;;;;;34.37;43.17;98359.34;5085044;28;19955;-86
2022/08/17 13:28:27;;;;;;;;;;;;;;;34.56;41.42;98357.56;5082492;28;19920;-86
2022/08/17 13:31:12;;;;;;;;;;;;;;;34.15;41.98;98365.09;5091181;28;20049;-86
2022/08/17 13:33:38;;;;;;;;;;;;;;;34.99;40.84;98362.09;5111109;28;19916;-86
2022/08/17 13:36:05;;;;;;;;;;;;;;;33.88;43.47;98360.94;5075062;28;19919;-86